RJDM(METAR)
08/13 14:00
METAR RJDM 130500Z 20008KT 9999 FEW030 SCT040 34/26 Q1012 RMK 1CU030
3CU040 A2990=
戻る
トップページへ戻る
IMOC Co,.Ltd.